createdAt,value
2023-02-26T00:01:30.860Z,0.70
2023-02-26T00:04:01.056Z,0.67
2023-02-26T00:06:29.180Z,0.66
2023-02-26T00:08:56.927Z,0.61
2023-02-26T00:11:24.482Z,0.63
2023-02-26T00:13:52.016Z,0.61
2023-02-26T00:16:28.648Z,0.62
2023-02-26T00:18:58.107Z,0.64
2023-02-26T00:21:26.528Z,0.61
2023-02-26T00:23:54.086Z,0.59
2023-02-26T00:26:23.410Z,0.56
2023-02-26T00:28:50.862Z,0.55
2023-02-26T00:31:21.178Z,0.55
2023-02-26T00:33:48.404Z,0.54
2023-02-26T00:36:24.799Z,0.52
2023-02-26T00:39:15.473Z,0.51
2023-02-26T00:41:43.022Z,0.44
2023-02-26T00:44:10.444Z,0.44
2023-02-26T00:47:05.502Z,0.43
2023-02-26T00:49:45.431Z,0.43
2023-02-26T00:52:27.242Z,0.44
2023-02-26T00:54:54.468Z,0.44
2023-02-26T00:57:21.613Z,0.46
2023-02-26T00:59:48.740Z,0.45
2023-02-26T01:02:15.806Z,0.43
2023-02-26T01:04:43.102Z,0.41
2023-02-26T01:07:11.004Z,0.43
2023-02-26T01:09:38.776Z,0.44
2023-02-26T01:12:09.292Z,0.46
2023-02-26T01:14:37.139Z,0.48
2023-02-26T01:17:22.857Z,0.50
2023-02-26T01:19:54.704Z,0.50
2023-02-26T01:23:03.569Z,0.50
2023-02-26T01:25:55.008Z,0.51
2023-02-26T01:28:22.488Z,0.51
2023-02-26T01:30:51.579Z,0.48
2023-02-26T01:33:35.534Z,0.46
2023-02-26T01:36:15.783Z,0.39
2023-02-26T01:39:01.487Z,0.41
2023-02-26T01:41:39.101Z,0.41
2023-02-26T01:44:08.631Z,0.40
2023-02-26T01:47:05.104Z,0.41
2023-02-26T01:49:34.352Z,0.41
2023-02-26T01:52:03.597Z,0.40
2023-02-26T01:54:38.863Z,0.37
2023-02-26T01:57:12.821Z,0.36
2023-02-26T01:59:43.267Z,0.32
2023-02-26T02:02:13.702Z,0.33
2023-02-26T02:04:42.410Z,0.34
2023-02-26T02:07:09.791Z,0.30
2023-02-26T02:09:37.034Z,0.28
2023-02-26T02:12:22.705Z,0.28
2023-02-26T02:15:06.055Z,0.27
2023-02-26T02:17:36.212Z,0.25
2023-02-26T02:20:25.380Z,0.26
2023-02-26T02:23:18.787Z,0.28
2023-02-26T02:25:48.792Z,0.31
2023-02-26T02:28:28.131Z,0.28
2023-02-26T02:31:10.842Z,0.28
2023-02-26T02:33:50.111Z,0.27
2023-02-26T02:36:31.696Z,0.26
2023-02-26T02:39:04.970Z,0.27
2023-02-26T02:41:39.397Z,0.24
2023-02-26T02:44:12.695Z,0.27
2023-02-26T02:46:42.211Z,0.27
2023-02-26T02:49:22.620Z,0.20
2023-02-26T02:51:57.220Z,0.11
2023-02-26T02:54:36.316Z,0.19
2023-02-26T02:57:16.331Z,0.13
2023-02-26T02:59:49.563Z,0.15
2023-02-26T03:02:40.716Z,0.14
2023-02-26T03:05:08.252Z,0.17
2023-02-26T03:07:43.808Z,0.17
2023-02-26T03:10:12.294Z,0.17
2023-02-26T03:12:39.373Z,0.16
2023-02-26T03:15:08.254Z,0.15
2023-02-26T03:17:54.079Z,0.14
2023-02-26T03:20:36.738Z,0.12
2023-02-26T03:23:15.532Z,0.08
2023-02-26T03:25:57.532Z,0.06
2023-02-26T03:28:40.694Z,0.09
2023-02-26T03:31:13.857Z,0.09
2023-02-26T03:33:58.689Z,0.10
2023-02-26T03:36:44.833Z,0.06
2023-02-26T03:39:45.747Z,0.09
2023-02-26T03:42:32.377Z,0.08
2023-02-26T03:45:06.001Z,0.07
2023-02-26T03:47:35.310Z,0.06
2023-02-26T03:50:08.824Z,0.09
2023-02-26T03:52:49.205Z,0.06
2023-02-26T03:56:00.581Z,0.08
2023-02-26T03:58:46.415Z,0.03
2023-02-26T04:01:49.346Z,0.04
2023-02-26T04:04:55.758Z,0.02
2023-02-26T04:07:23.654Z,0.01
2023-02-26T04:09:52.394Z,-0.04
2023-02-26T04:12:25.385Z,-0.04
2023-02-26T04:14:55.792Z,-0.08
2023-02-26T04:17:23.151Z,-0.05
2023-02-26T04:19:50.460Z,-0.06
2023-02-26T04:22:18.419Z,-0.05
2023-02-26T04:24:46.091Z,-0.05
2023-02-26T04:27:15.030Z,-0.12
2023-02-26T04:29:42.237Z,-0.04
2023-02-26T04:32:09.484Z,-0.04
2023-02-26T04:34:36.655Z,-0.04
2023-02-26T04:37:04.892Z,-0.06
2023-02-26T04:39:32.237Z,-0.14
2023-02-26T04:41:59.331Z,-0.08
2023-02-26T04:44:26.453Z,-0.04
2023-02-26T04:46:53.571Z,-0.05
2023-02-26T04:49:20.822Z,-0.07
2023-02-26T04:51:48.114Z,-0.03
2023-02-26T04:54:16.414Z,-0.02
2023-02-26T04:56:43.573Z,0.01
2023-02-26T04:59:10.768Z,-0.03
2023-02-26T05:01:38.031Z,-0.02
2023-02-26T05:04:08.017Z,-0.04
2023-02-26T05:06:35.809Z,-0.04
2023-02-26T05:09:03.134Z,-0.06
2023-02-26T05:11:30.912Z,-0.12
2023-02-26T05:13:58.108Z,-0.06
2023-02-26T05:16:25.607Z,-0.06
2023-02-26T05:18:53.046Z,-0.07
2023-02-26T05:21:22.730Z,-0.05
2023-02-26T05:23:51.126Z,-0.03
2023-02-26T05:26:18.194Z,-0.05
2023-02-26T05:28:46.005Z,-0.05
2023-02-26T05:31:13.962Z,-0.07
2023-02-26T05:33:41.649Z,-0.07
2023-02-26T05:36:09.475Z,-0.04
2023-02-26T05:38:36.896Z,-0.04
2023-02-26T05:41:04.182Z,-0.04
2023-02-26T05:43:31.560Z,-0.02
2023-02-26T05:45:58.705Z,-0.01
2023-02-26T05:48:25.941Z,-0.02
2023-02-26T05:50:53.180Z,-0.03
2023-02-26T05:53:20.549Z,0.02
2023-02-26T05:55:48.174Z,0.04
2023-02-26T05:58:15.930Z,0.06
2023-02-26T06:00:43.257Z,0.08
2023-02-26T06:03:10.398Z,0.08
2023-02-26T06:05:37.579Z,0.07
2023-02-26T06:08:05.892Z,0.14
2023-02-26T06:10:33.352Z,0.14
2023-02-26T06:13:00.513Z,0.18
2023-02-26T06:15:27.748Z,0.18
2023-02-26T06:17:54.870Z,0.14
2023-02-26T06:20:21.934Z,0.20
2023-02-26T06:22:48.985Z,0.20
2023-02-26T06:25:16.138Z,0.21
2023-02-26T06:27:43.236Z,0.20
2023-02-26T06:30:11.265Z,0.24
2023-02-26T06:32:38.516Z,0.27
2023-02-26T06:35:06.575Z,0.28
2023-02-26T06:37:33.741Z,0.29
2023-02-26T06:40:00.863Z,0.27
2023-02-26T06:42:27.934Z,0.32
2023-02-26T06:44:55.107Z,0.32
2023-02-26T06:47:23.024Z,0.35
2023-02-26T06:49:50.108Z,0.36
2023-02-26T06:52:17.299Z,0.43
2023-02-26T06:54:44.509Z,0.46
2023-02-26T06:57:11.736Z,0.43
2023-02-26T06:59:38.858Z,0.48
2023-02-26T07:02:05.965Z,0.48
2023-02-26T07:04:33.104Z,0.49
2023-02-26T07:07:00.227Z,0.49
2023-02-26T07:09:27.365Z,0.49
2023-02-26T07:11:54.430Z,0.52
2023-02-26T07:14:21.575Z,0.56
2023-02-26T07:16:48.800Z,0.59
2023-02-26T07:19:16.501Z,0.64
2023-02-26T07:21:43.741Z,0.66
2023-02-26T07:24:10.850Z,0.61
2023-02-26T07:26:37.980Z,0.66
2023-02-26T07:29:05.161Z,0.62
2023-02-26T07:31:32.545Z,0.68
2023-02-26T07:33:59.756Z,0.64
2023-02-26T07:36:27.365Z,0.68
2023-02-26T07:38:54.818Z,0.70
2023-02-26T07:41:21.983Z,0.71
2023-02-26T07:43:50.648Z,0.72
2023-02-26T07:46:17.892Z,0.71
2023-02-26T07:48:44.966Z,0.72
2023-02-26T07:51:12.147Z,0.69
2023-02-26T07:53:39.336Z,0.66
2023-02-26T07:56:06.460Z,0.69
2023-02-26T07:58:33.748Z,0.65
2023-02-26T08:01:01.009Z,0.65
2023-02-26T08:03:28.152Z,0.71
2023-02-26T08:05:55.318Z,0.65
2023-02-26T08:08:22.552Z,0.69
2023-02-26T08:10:49.752Z,0.75
2023-02-26T08:13:16.952Z,0.77
2023-02-26T08:15:44.404Z,0.85
2023-02-26T08:18:12.535Z,0.87
2023-02-26T08:20:39.970Z,0.86
2023-02-26T08:23:07.436Z,0.83
2023-02-26T08:25:34.607Z,0.85
2023-02-26T08:28:03.452Z,0.84
2023-02-26T08:30:31.168Z,0.82
2023-02-26T08:32:58.279Z,0.78
2023-02-26T08:35:25.447Z,0.81
2023-02-26T08:37:53.058Z,0.86
2023-02-26T08:40:20.419Z,0.89
2023-02-26T08:42:48.195Z,0.88
2023-02-26T08:45:15.559Z,0.92
2023-02-26T08:47:55.520Z,0.95
2023-02-26T08:50:24.145Z,0.97
2023-02-26T08:52:51.404Z,1.00
2023-02-26T08:55:18.612Z,1.02
2023-02-26T08:57:45.743Z,1.10
2023-02-26T09:00:16.482Z,1.24
2023-02-26T09:02:43.639Z,1.39
2023-02-26T09:05:12.322Z,1.42
2023-02-26T09:07:39.669Z,1.45
2023-02-26T09:10:08.062Z,1.50
2023-02-26T09:12:38.492Z,1.54
2023-02-26T09:15:07.420Z,1.54
2023-02-26T09:17:35.220Z,1.67
2023-02-26T09:20:03.012Z,1.83
2023-02-26T09:22:30.232Z,1.88
2023-02-26T09:24:57.671Z,2.00
2023-02-26T09:27:25.428Z,1.98
2023-02-26T09:29:52.544Z,2.02
2023-02-26T09:32:19.860Z,2.09
2023-02-26T09:34:47.077Z,2.12
2023-02-26T09:37:14.303Z,2.13
2023-02-26T09:39:41.538Z,2.17
2023-02-26T09:42:14.489Z,2.21
2023-02-26T09:44:42.114Z,2.05
2023-02-26T09:47:24.972Z,2.12
2023-02-26T09:49:58.210Z,2.15
2023-02-26T09:52:28.260Z,2.13
2023-02-26T09:55:16.702Z,2.11
2023-02-26T09:57:46.126Z,2.06
2023-02-26T10:00:38.551Z,2.04
2023-02-26T10:03:14.548Z,2.00
2023-02-26T10:06:09.044Z,1.99
2023-02-26T10:09:04.398Z,2.05
2023-02-26T10:11:50.175Z,2.11
2023-02-26T10:14:24.746Z,2.13
2023-02-26T10:16:55.451Z,2.15
2023-02-26T10:19:29.288Z,2.17
2023-02-26T10:22:22.442Z,2.21
2023-02-26T10:24:54.530Z,2.21
2023-02-26T10:27:31.549Z,2.21
2023-02-26T10:30:03.085Z,2.19
2023-02-26T10:32:41.467Z,2.14
2023-02-26T10:35:19.204Z,2.10
2023-02-26T10:38:05.170Z,2.10
2023-02-26T10:40:41.595Z,2.09
2023-02-26T10:43:30.248Z,2.14
2023-02-26T10:46:12.429Z,2.18
2023-02-26T10:48:59.860Z,2.25
2023-02-26T10:51:35.339Z,2.30
2023-02-26T10:54:17.450Z,2.29
2023-02-26T10:56:44.584Z,2.31
2023-02-26T10:59:11.732Z,2.33
2023-02-26T11:01:39.133Z,2.34
2023-02-26T11:04:10.177Z,2.32
2023-02-26T11:06:45.476Z,2.36
2023-02-26T11:09:34.159Z,2.35
2023-02-26T11:12:14.839Z,2.33
2023-02-26T11:14:48.683Z,2.50
2023-02-26T11:17:23.318Z,2.74
2023-02-26T11:20:15.914Z,2.86
2023-02-26T11:22:49.361Z,2.84
2023-02-26T11:25:22.877Z,2.76
2023-02-26T11:28:01.778Z,2.61
2023-02-26T11:30:32.344Z,2.46
2023-02-26T11:33:07.097Z,2.40
2023-02-26T11:35:34.218Z,2.37
2023-02-26T11:38:03.201Z,2.38
2023-02-26T11:40:39.095Z,2.43
2023-02-26T11:43:28.617Z,2.53
2023-02-26T11:45:59.607Z,2.58
2023-02-26T11:48:37.909Z,2.64
2023-02-26T11:51:07.548Z,2.74
2023-02-26T11:53:37.815Z,2.75
2023-02-26T11:56:12.095Z,2.76
2023-02-26T11:58:43.320Z,2.72
2023-02-26T12:01:13.370Z,2.66
2023-02-26T12:03:46.383Z,2.59
2023-02-26T12:06:25.026Z,2.53
2023-02-26T12:08:53.643Z,2.50
2023-02-26T12:11:26.586Z,2.46
2023-02-26T12:14:09.137Z,2.41
2023-02-26T12:16:54.851Z,2.41
2023-02-26T12:19:58.603Z,2.43
2023-02-26T12:22:55.469Z,2.47
2023-02-26T12:25:51.608Z,2.53
2023-02-26T12:28:39.898Z,2.65
2023-02-26T12:31:16.845Z,2.70
2023-02-26T12:34:06.428Z,2.74
2023-02-26T12:37:04.451Z,2.79
2023-02-26T12:39:48.574Z,2.82
2023-02-26T12:42:23.029Z,2.82
2023-02-26T12:45:27.752Z,2.79
2023-02-26T12:48:27.305Z,2.73
2023-02-26T12:51:28.862Z,2.63
2023-02-26T12:54:36.412Z,2.61
2023-02-26T12:57:21.697Z,2.61
2023-02-26T13:00:13.108Z,2.64
2023-02-26T13:03:04.213Z,2.63
2023-02-26T13:06:03.460Z,2.62
2023-02-26T13:08:49.232Z,2.69
2023-02-26T13:11:29.679Z,2.70
2023-02-26T13:14:24.508Z,2.72
2023-02-26T13:16:54.459Z,2.73
2023-02-26T13:19:48.615Z,2.71
2023-02-26T13:22:39.161Z,2.64
2023-02-26T13:25:19.730Z,2.65
2023-02-26T13:27:49.080Z,2.60
2023-02-26T13:30:22.118Z,2.57
2023-02-26T13:32:53.666Z,2.48
2023-02-26T13:35:39.413Z,2.51
2023-02-26T13:38:35.910Z,2.49
2023-02-26T13:41:12.961Z,2.50
2023-02-26T13:43:58.780Z,2.48
2023-02-26T13:46:28.728Z,2.47
2023-02-26T13:49:04.126Z,2.47
2023-02-26T13:51:39.130Z,2.50
2023-02-26T13:54:13.281Z,2.50
2023-02-26T13:56:40.773Z,2.52
2023-02-26T13:59:15.153Z,2.53
2023-02-26T14:01:50.204Z,2.51
2023-02-26T14:04:20.306Z,2.48
2023-02-26T14:06:49.327Z,2.45
2023-02-26T14:09:22.301Z,2.49
2023-02-26T14:11:55.174Z,2.48
2023-02-26T14:14:22.396Z,2.45
2023-02-26T14:17:08.170Z,2.43
2023-02-26T14:20:08.779Z,2.42
2023-02-26T14:22:42.071Z,2.43
2023-02-26T14:25:18.439Z,2.42
2023-02-26T14:27:48.137Z,2.38
2023-02-26T14:30:34.841Z,2.39
2023-02-26T14:33:03.805Z,2.41
2023-02-26T14:35:41.107Z,2.43
2023-02-26T14:38:13.739Z,2.45
2023-02-26T14:40:46.827Z,2.39
2023-02-26T14:43:22.389Z,2.39
2023-02-26T14:45:50.855Z,2.40
2023-02-26T14:48:22.089Z,2.40
2023-02-26T14:50:55.417Z,2.41
2023-02-26T14:53:37.602Z,2.45
2023-02-26T14:56:07.752Z,2.46
2023-02-26T14:58:56.312Z,2.45
2023-02-26T15:01:55.791Z,2.37
2023-02-26T15:04:52.418Z,2.35
2023-02-26T15:07:39.732Z,2.35
2023-02-26T15:10:10.128Z,2.28
2023-02-26T15:12:37.133Z,2.27
2023-02-26T15:15:18.973Z,2.22
2023-02-26T15:18:12.002Z,2.16
2023-02-26T15:20:51.104Z,2.10
2023-02-26T15:23:23.999Z,2.06
2023-02-26T15:25:51.590Z,2.03
2023-02-26T15:28:31.789Z,2.01
2023-02-26T15:31:01.087Z,1.99
2023-02-26T15:33:30.661Z,1.81
2023-02-26T15:35:59.367Z,1.97
2023-02-26T15:38:27.020Z,1.96
2023-02-26T15:40:58.417Z,1.94
2023-02-26T15:43:28.562Z,1.94
2023-02-26T15:45:58.817Z,1.88
2023-02-26T15:48:32.910Z,1.85
2023-02-26T15:51:03.497Z,1.89
2023-02-26T15:53:51.714Z,1.86
2023-02-26T15:56:24.695Z,1.83
2023-02-26T15:59:14.931Z,1.78
2023-02-26T16:01:42.312Z,1.76
2023-02-26T16:04:15.378Z,1.74
2023-02-26T16:06:53.102Z,1.72
2023-02-26T16:09:30.264Z,1.71
2023-02-26T16:12:01.148Z,1.70
2023-02-26T16:14:34.286Z,1.66
2023-02-26T16:17:01.844Z,1.67
2023-02-26T16:19:44.898Z,1.65
2023-02-26T16:22:50.416Z,1.62
2023-02-26T16:25:24.986Z,1.61
2023-02-26T16:28:02.268Z,1.57
2023-02-26T16:30:38.681Z,1.62
2023-02-26T16:33:15.450Z,1.54
2023-02-26T16:35:47.662Z,1.61
2023-02-26T16:38:25.057Z,1.62
2023-02-26T16:40:59.901Z,1.61
2023-02-26T16:43:45.498Z,1.61
2023-02-26T16:46:16.921Z,1.59
2023-02-26T16:48:48.806Z,1.60
2023-02-26T16:51:20.684Z,1.59
2023-02-26T16:53:58.353Z,1.60
2023-02-26T16:56:32.135Z,1.60
2023-02-26T16:59:17.093Z,1.60
2023-02-26T17:02:01.094Z,1.61
2023-02-26T17:04:37.229Z,1.60
2023-02-26T17:07:46.245Z,1.57
2023-02-26T17:10:24.703Z,1.52
2023-02-26T17:12:53.973Z,1.48
2023-02-26T17:15:32.782Z,1.49
2023-02-26T17:18:00.203Z,1.47
2023-02-26T17:20:29.646Z,1.46
2023-02-26T17:22:58.692Z,1.46
2023-02-26T17:25:36.863Z,1.42
2023-02-26T17:28:04.671Z,1.40
2023-02-26T17:30:33.754Z,1.39
2023-02-26T17:33:03.561Z,1.43
2023-02-26T17:35:31.687Z,1.44
2023-02-26T17:38:00.804Z,1.44
2023-02-26T17:40:31.990Z,1.42
2023-02-26T17:43:00.287Z,1.42
2023-02-26T17:45:27.464Z,1.40
2023-02-26T17:47:54.783Z,1.41
2023-02-26T17:50:30.393Z,1.38
2023-02-26T17:52:58.256Z,1.37
2023-02-26T17:55:25.506Z,1.28
2023-02-26T17:57:52.853Z,1.36
2023-02-26T18:00:20.254Z,1.31
2023-02-26T18:02:47.382Z,1.25
2023-02-26T18:05:14.574Z,1.27
2023-02-26T18:07:41.893Z,1.23
2023-02-26T18:10:17.020Z,1.20
2023-02-26T18:12:44.194Z,1.15
2023-02-26T18:15:11.961Z,1.14
2023-02-26T18:17:39.551Z,1.08
2023-02-26T18:20:09.302Z,1.10
2023-02-26T18:22:36.452Z,1.08
2023-02-26T18:25:03.698Z,1.07
2023-02-26T18:27:30.902Z,1.07
2023-02-26T18:29:59.462Z,1.03
2023-02-26T18:32:28.145Z,1.01
2023-02-26T18:34:55.409Z,1.01
2023-02-26T18:37:26.203Z,0.97
2023-02-26T18:39:53.719Z,0.98
2023-02-26T18:42:26.462Z,0.95
2023-02-26T18:44:54.933Z,0.95
2023-02-26T18:47:23.144Z,0.92
2023-02-26T18:49:52.145Z,0.95
2023-02-26T18:52:19.652Z,0.92
2023-02-26T18:54:46.824Z,0.88
2023-02-26T18:57:15.496Z,0.98
2023-02-26T18:59:42.605Z,0.96
2023-02-26T19:02:13.916Z,0.96
2023-02-26T19:04:41.962Z,0.94
2023-02-26T19:07:09.178Z,0.92
2023-02-26T19:09:36.523Z,0.85
2023-02-26T19:12:04.372Z,0.83
2023-02-26T19:14:32.106Z,0.82
2023-02-26T19:16:59.621Z,0.81
2023-02-26T19:19:26.878Z,0.78
2023-02-26T19:21:54.142Z,0.76
2023-02-26T19:24:21.335Z,0.77
2023-02-26T19:26:49.377Z,0.68
2023-02-26T19:29:19.018Z,0.80
2023-02-26T19:31:46.935Z,0.82
2023-02-26T19:34:14.517Z,0.82
2023-02-26T19:36:48.432Z,0.83
2023-02-26T19:39:17.255Z,0.83
2023-02-26T19:41:46.184Z,0.85
2023-02-26T19:44:13.475Z,0.86
2023-02-26T19:46:42.129Z,0.88
2023-02-26T19:49:12.583Z,0.92
2023-02-26T19:51:40.324Z,0.87
2023-02-26T19:54:07.688Z,0.93
2023-02-26T19:56:34.969Z,0.93
2023-02-26T19:59:02.637Z,0.89
2023-02-26T20:01:30.219Z,0.88
2023-02-26T20:03:58.123Z,0.87
2023-02-26T20:06:25.840Z,0.88
2023-02-26T20:08:53.146Z,0.88
2023-02-26T20:11:20.750Z,0.85
2023-02-26T20:13:48.266Z,0.87
2023-02-26T20:16:16.135Z,0.86
2023-02-26T20:18:45.942Z,0.88
2023-02-26T20:21:14.079Z,0.88
2023-02-26T20:23:42.009Z,0.87
2023-02-26T20:26:12.443Z,0.90
2023-02-26T20:28:40.337Z,0.94
2023-02-26T20:31:08.347Z,0.94
2023-02-26T20:33:39.752Z,0.94
2023-02-26T20:36:08.731Z,0.93
2023-02-26T20:38:36.389Z,0.95
2023-02-26T20:41:04.008Z,0.95
2023-02-26T20:43:31.460Z,0.95
2023-02-26T20:45:58.611Z,0.96
2023-02-26T20:48:26.000Z,0.96
2023-02-26T20:50:53.889Z,0.96
2023-02-26T20:53:22.262Z,0.97
2023-02-26T20:55:49.495Z,0.95
2023-02-26T20:58:17.081Z,0.95
2023-02-26T21:00:44.595Z,0.93
2023-02-26T21:03:11.843Z,0.95
2023-02-26T21:05:39.300Z,0.96
2023-02-26T21:08:06.507Z,0.93
2023-02-26T21:10:33.793Z,0.94
2023-02-26T21:13:01.065Z,0.94
2023-02-26T21:15:28.341Z,0.94
2023-02-26T21:17:55.484Z,0.94
2023-02-26T21:20:23.556Z,0.95
2023-02-26T21:22:51.473Z,0.95
2023-02-26T21:25:18.712Z,0.91
2023-02-26T21:27:45.975Z,0.91
2023-02-26T21:30:14.788Z,0.89
2023-02-26T21:32:42.828Z,0.89
2023-02-26T21:35:16.064Z,0.87
2023-02-26T21:37:46.981Z,0.87
2023-02-26T21:40:15.601Z,0.88
2023-02-26T21:42:43.535Z,0.85
2023-02-26T21:45:11.656Z,0.82
2023-02-26T21:47:39.430Z,0.87
2023-02-26T21:50:07.348Z,0.62
2023-02-26T21:52:34.722Z,0.88
2023-02-26T21:55:02.034Z,0.89
2023-02-26T21:57:29.736Z,0.92
2023-02-26T21:59:56.972Z,0.88
2023-02-26T22:02:24.496Z,0.92
2023-02-26T22:04:51.703Z,0.95
2023-02-26T22:07:20.079Z,0.94
2023-02-26T22:09:49.154Z,0.94
2023-02-26T22:12:17.414Z,0.93
2023-02-26T22:14:44.812Z,0.89
2023-02-26T22:17:11.968Z,0.88
2023-02-26T22:19:39.065Z,0.86
2023-02-26T22:22:06.540Z,0.83
2023-02-26T22:24:33.681Z,0.82
2023-02-26T22:27:00.808Z,0.80
2023-02-26T22:29:27.927Z,0.77
2023-02-26T22:31:56.925Z,0.69
2023-02-26T22:34:24.185Z,0.66
2023-02-26T22:36:52.421Z,0.57
2023-02-26T22:39:19.817Z,0.58
2023-02-26T22:41:47.547Z,0.51
2023-02-26T22:44:15.355Z,0.50
2023-02-26T22:46:42.644Z,0.47
2023-02-26T22:49:09.923Z,0.39
2023-02-26T22:51:37.225Z,0.41
2023-02-26T22:54:04.438Z,0.39
2023-02-26T22:56:31.984Z,0.32
2023-02-26T22:58:59.099Z,0.35
2023-02-26T23:01:26.307Z,0.33
2023-02-26T23:03:53.417Z,0.32
2023-02-26T23:06:22.541Z,0.31
2023-02-26T23:08:53.149Z,0.27
2023-02-26T23:11:20.642Z,0.23
2023-02-26T23:13:47.740Z,0.20
2023-02-26T23:16:15.384Z,0.17
2023-02-26T23:18:45.723Z,0.16
2023-02-26T23:21:12.899Z,0.13
2023-02-26T23:23:40.227Z,0.12
2023-02-26T23:26:07.754Z,0.06
2023-02-26T23:28:34.936Z,0.02
2023-02-26T23:31:02.190Z,0.07
2023-02-26T23:33:29.539Z,0.06
2023-02-26T23:35:56.647Z,-0.02
2023-02-26T23:38:23.955Z,-0.03
2023-02-26T23:40:51.210Z,-0.05
2023-02-26T23:43:18.457Z,-0.08
2023-02-26T23:45:45.525Z,-0.10
2023-02-26T23:48:12.772Z,-0.13
2023-02-26T23:50:40.015Z,-0.16
2023-02-26T23:53:07.575Z,-0.16
2023-02-26T23:55:34.805Z,-0.21
2023-02-26T23:58:02.023Z,-0.18
